Time,TemperatureF,DewpointF,PressureIn,WindDirection,WindDirectionDegrees,WindSpeedMPH,WindSpeedGustMPH,Humidity,HourlyPrecipIn,Conditions,Clouds,dailyrainin,SoftwareType,DateUTC
2013-08-18 00:11:00,69.0,56.0,29.92,SE,134,1.0,1.0,63,0.00,,,0.00,,2013-08-18 07:11:00,
2013-08-18 00:21:00,69.0,56.0,29.92,SE,134,1.0,1.0,63,0.00,,,0.00,,2013-08-18 07:21:00,
2013-08-18 00:42:00,68.0,55.0,29.92,SE,134,1.0,1.0,63,0.00,,,0.00,,2013-08-18 07:42:00,
2013-08-18 00:52:00,68.0,55.0,29.92,SE,134,1.0,1.0,63,0.00,,,0.00,,2013-08-18 07:52:00,
2013-08-18 01:12:00,68.0,56.0,29.91,SE,134,0.0,1.0,65,0.00,,,0.00,,2013-08-18 08:12:00,
2013-08-18 01:21:00,68.0,56.0,29.91,SE,134,1.0,2.0,65,0.00,,,0.00,,2013-08-18 08:21:00,
2013-08-18 01:52:00,67.0,56.0,29.90,SE,134,0.0,1.0,67,0.00,,,0.00,,2013-08-18 08:52:00,
2013-08-18 02:11:00,67.0,56.0,29.90,SE,134,0.0,1.0,67,0.00,,,0.00,,2013-08-18 09:11:00,
2013-08-18 02:21:00,66.0,55.0,29.90,SE,134,1.0,2.0,68,0.00,,,0.00,,2013-08-18 09:21:00,
2013-08-18 02:43:00,66.0,56.0,29.90,SE,134,1.0,2.0,69,0.00,,,0.00,,2013-08-18 09:43:00,
2013-08-18 02:53:00,65.0,56.0,29.90,SE,134,0.0,1.0,72,0.00,,,0.00,,2013-08-18 09:53:00,
2013-08-18 03:12:00,65.0,56.0,29.90,SE,134,1.0,1.0,72,0.00,,,0.00,,2013-08-18 10:12:00,
2013-08-18 03:22:00,65.0,56.0,29.90,SE,134,1.0,2.0,72,0.00,,,0.00,,2013-08-18 10:22:00,
2013-08-18 03:42:00,65.0,56.0,29.89,SE,134,1.0,2.0,72,0.00,,,0.00,,2013-08-18 10:42:00,
2013-08-18 03:52:00,65.0,56.0,29.90,East,86,1.0,3.0,72,0.00,,,0.00,,2013-08-18 10:52:00,
2013-08-18 04:11:00,64.0,56.0,29.90,East,83,1.0,3.0,75,0.00,,,0.00,,2013-08-18 11:11:00,
2013-08-18 04:22:00,63.0,55.0,29.90,East,83,1.0,2.0,75,0.00,,,0.00,,2013-08-18 11:22:00,
2013-08-18 04:42:00,63.0,55.0,29.90,East,83,1.0,2.0,76,0.00,,,0.00,,2013-08-18 11:42:00,
2013-08-18 04:51:00,63.0,56.0,29.91,East,83,327.0,327.0,77,0.00,,,0.00,,2013-08-18 11:51:00,
2013-08-18 05:11:00,63.0,56.0,29.90,East,83,0.0,1.0,78,0.00,,,0.00,,2013-08-18 12:11:00,
2013-08-18 05:21:00,62.0,55.0,29.90,East,83,1.0,2.0,79,0.00,,,0.00,,2013-08-18 12:21:00,
2013-08-18 05:41:00,62.0,56.0,29.90,East,83,0.0,3.0,80,0.00,,,0.00,,2013-08-18 12:41:00,
2013-08-18 05:52:00,61.0,55.0,29.91,East,83,1.0,2.0,82,0.00,,,0.00,,2013-08-18 12:52:00,
2013-08-18 06:11:00,60.0,55.0,29.91,East,83,1.0,2.0,83,0.00,,,0.00,,2013-08-18 13:11:00,
2013-08-18 06:21:00,60.0,55.0,29.91,East,83,1.0,2.0,85,0.00,,,0.00,,2013-08-18 13:21:00,
2013-08-18 06:42:00,59.0,55.0,29.91,East,83,1.0,2.0,86,0.00,,,0.00,,2013-08-18 13:42:00,
2013-08-18 06:52:00,59.0,55.0,29.91,East,83,0.0,2.0,87,0.00,,,0.00,,2013-08-18 13:52:00,
2013-08-18 07:11:00,60.0,56.0,29.92,ENE,70,1.0,3.0,87,0.00,,,0.00,,2013-08-18 14:11:00,
2013-08-18 07:21:00,60.0,56.0,29.92,ENE,70,1.0,2.0,87,0.00,,,0.00,,2013-08-18 14:21:00,
2013-08-18 07:42:00,61.0,56.0,29.92,ENE,70,0.0,0.0,85,0.00,,,0.00,,2013-08-18 14:42:00,
2013-08-18 07:53:00,62.0,57.0,29.93,ENE,70,1.0,2.0,84,0.00,,,0.00,,2013-08-18 14:53:00,
2013-08-18 08:11:00,64.0,58.0,29.93,ENE,70,1.0,2.0,82,0.00,,,0.00,,2013-08-18 15:11:00,
2013-08-18 08:22:00,66.0,60.0,29.93,ENE,70,0.0,2.0,80,0.00,,,0.00,,2013-08-18 15:22:00,
2013-08-18 09:13:00,71.0,59.0,29.93,WSW,245,1.0,3.0,67,0.00,,,0.00,,2013-08-18 16:13:00,
2013-08-18 09:23:00,72.0,60.0,29.93,ESE,111,1.0,3.0,65,0.00,,,0.00,,2013-08-18 16:23:00,
2013-08-18 09:42:00,73.0,60.0,29.94,WSW,242,1.0,3.0,63,0.00,,,0.00,,2013-08-18 16:42:00,
2013-08-18 09:52:00,74.0,60.0,29.94,WSW,244,2.0,3.0,61,0.00,,,0.00,,2013-08-18 16:52:00,
2013-08-18 10:12:00,75.0,60.0,29.94,WSW,247,1.0,3.0,60,0.00,,,0.00,,2013-08-18 17:12:00,
2013-08-18 10:23:00,77.0,61.0,29.94,SW,231,1.0,3.0,57,0.00,,,0.00,,2013-08-18 17:23:00,
2013-08-18 10:42:00,78.0,60.0,29.94,SSW,203,1.0,2.0,54,0.00,,,0.00,,2013-08-18 17:42:00,
2013-08-18 10:52:00,79.0,60.0,29.94,WSW,250,1.0,4.0,52,0.00,,,0.00,,2013-08-18 17:52:00,
2013-08-18 11:12:00,81.0,60.0,29.94,SW,224,1.0,3.0,49,0.00,,,0.00,,2013-08-18 18:12:00,
2013-08-18 11:21:00,83.0,61.0,29.94,West,269,1.0,5.0,47,0.00,,,0.00,,2013-08-18 18:21:00,
2013-08-18 11:42:00,84.0,60.0,29.94,West,259,2.0,5.0,45,0.00,,,0.00,,2013-08-18 18:42:00,
2013-08-18 11:52:00,84.0,60.0,29.94,West,259,2.0,5.0,45,0.00,,,0.00,,2013-08-18 18:52:00,
2013-08-18 12:11:00,86.0,61.0,29.94,WNW,286,2.0,3.0,43,0.00,,,0.00,,2013-08-18 19:11:00,
2013-08-18 12:22:00,87.0,61.0,29.94,West,277,2.0,6.0,42,0.00,,,0.00,,2013-08-18 19:22:00,
2013-08-18 12:41:00,88.0,62.0,29.94,SSW,194,2.0,5.0,42,0.00,,,0.00,,2013-08-18 19:41:00,
2013-08-18 12:52:00,88.0,61.0,29.93,WNW,288,2.0,6.0,41,0.00,,,0.00,,2013-08-18 19:52:00,
2013-08-18 13:11:00,88.0,61.0,29.93,WNW,302,2.0,5.0,40,0.00,,,0.00,,2013-08-18 20:11:00,
2013-08-18 13:22:00,89.0,61.0,29.93,WNW,292,2.0,6.0,39,0.00,,,0.00,,2013-08-18 20:22:00,
2013-08-18 13:42:00,90.0,61.0,29.93,SW,234,2.0,6.0,38,0.00,,,0.00,,2013-08-18 20:42:00,
2013-08-18 13:52:00,91.0,60.0,29.93,SW,229,3.0,8.0,36,0.00,,,0.00,,2013-08-18 20:52:00,
2013-08-18 14:11:00,91.0,59.0,29.92,WNW,293,2.0,5.0,35,0.00,,,0.00,,2013-08-18 21:11:00,
2013-08-18 14:21:00,91.0,59.0,29.92,WNW,287,2.0,6.0,35,0.00,,,0.00,,2013-08-18 21:21:00,
2013-08-18 14:53:00,93.0,60.0,29.91,West,279,2.0,5.0,33,0.00,,,0.00,,2013-08-18 21:53:00,
2013-08-18 15:13:00,93.0,60.0,29.91,West,272,2.0,8.0,34,0.00,,,0.00,,2013-08-18 22:13:00,
2013-08-18 15:23:00,93.0,60.0,29.91,WNW,290,2.0,6.0,34,0.00,,,0.00,,2013-08-18 22:23:00,
2013-08-18 15:42:00,94.0,60.0,29.90,West,281,2.0,6.0,32,0.00,,,0.00,,2013-08-18 22:42:00,
2013-08-18 15:52:00,94.0,60.0,29.90,West,281,3.0,6.0,33,0.00,,,0.00,,2013-08-18 22:52:00,
2013-08-18 16:11:00,93.0,60.0,29.90,SSW,208,3.0,9.0,34,0.00,,,0.00,,2013-08-18 23:11:00,
2013-08-18 16:22:00,92.0,60.0,29.89,SW,235,3.0,9.0,35,0.00,,,0.00,,2013-08-18 23:22:00,
2013-08-18 16:42:00,92.0,60.0,29.89,NW,308,3.0,9.0,34,0.00,,,0.00,,2013-08-18 23:42:00,
2013-08-18 16:52:00,92.0,59.0,29.88,NW,306,3.0,11.0,33,0.00,,,0.00,,2013-08-18 23:52:00,
2013-08-18 17:11:00,91.0,58.0,29.88,WSW,248,2.0,8.0,33,0.00,,,0.00,,2013-08-19 00:11:00,
2013-08-18 17:21:00,90.0,57.0,29.88,West,276,3.0,7.0,33,0.00,,,0.00,,2013-08-19 00:21:00,
2013-08-18 17:42:00,90.0,57.0,29.87,WNW,299,3.0,7.0,33,0.00,,,0.00,,2013-08-19 00:42:00,
2013-08-18 17:52:00,90.0,57.0,29.87,WNW,288,3.0,7.0,33,0.00,,,0.00,,2013-08-19 00:52:00,
2013-08-18 18:11:00,90.0,57.0,29.87,WNW,290,2.0,5.0,33,0.00,,,0.00,,2013-08-19 01:11:00,
2013-08-18 18:22:00,90.0,57.0,29.86,West,277,2.0,4.0,33,0.00,,,0.00,,2013-08-19 01:22:00,
2013-08-18 18:41:00,90.0,57.0,29.86,SSW,195,2.0,6.0,33,0.00,,,0.00,,2013-08-19 01:41:00,
2013-08-18 18:52:00,89.0,57.0,29.86,SW,231,1.0,3.0,34,0.00,,,0.00,,2013-08-19 01:52:00,
2013-08-18 19:11:00,88.0,56.0,29.85,West,281,2.0,5.0,34,0.00,,,0.00,,2013-08-19 02:11:00,
2013-08-18 19:21:00,87.0,56.0,29.86,WSW,251,1.0,3.0,35,0.00,,,0.00,,2013-08-19 02:21:00,
2013-08-18 19:42:00,87.0,57.0,29.86,WSW,247,1.0,3.0,36,0.00,,,0.00,,2013-08-19 02:42:00,
2013-08-18 19:52:00,86.0,57.0,29.86,WSW,244,1.0,2.0,38,0.00,,,0.00,,2013-08-19 02:52:00,
2013-08-18 20:11:00,85.0,57.0,29.86,West,266,1.0,2.0,38,0.00,,,0.00,,2013-08-19 03:11:00,
2013-08-18 20:21:00,83.0,56.0,29.86,West,266,1.0,2.0,40,0.00,,,0.00,,2013-08-19 03:21:00,
2013-08-18 20:42:00,83.0,56.0,29.86,West,266,1.0,2.0,40,0.00,,,0.00,,2013-08-19 03:42:00,
2013-08-18 20:53:00,82.0,56.0,29.86,West,266,1.0,2.0,41,0.00,,,0.00,,2013-08-19 03:53:00,
2013-08-18 21:12:00,82.0,55.0,29.87,West,276,1.0,2.0,40,0.00,,,0.00,,2013-08-19 04:12:00,
2013-08-18 21:23:00,82.0,55.0,29.87,West,276,1.0,2.0,40,0.00,,,0.00,,2013-08-19 04:23:00,
2013-08-18 21:42:00,82.0,55.0,29.88,West,276,1.0,2.0,40,0.00,,,0.00,,2013-08-19 04:42:00,
2013-08-18 21:53:00,82.0,55.0,29.88,West,276,1.0,2.0,39,0.00,,,0.00,,2013-08-19 04:53:00,
2013-08-18 22:11:00,82.0,55.0,29.88,West,276,1.0,2.0,39,0.00,,,0.00,,2013-08-19 05:11:00,
2013-08-18 22:22:00,82.0,55.0,29.87,West,276,1.0,1.0,39,0.00,,,0.00,,2013-08-19 05:22:00,
2013-08-18 22:42:00,82.0,55.0,29.87,West,276,1.0,1.0,40,0.00,,,0.00,,2013-08-19 05:42:00,
2013-08-18 22:52:00,82.0,55.0,29.88,West,276,1.0,2.0,40,0.00,,,0.00,,2013-08-19 05:52:00,
2013-08-18 23:11:00,81.0,56.0,29.88,West,276,1.0,1.0,42,0.00,,,0.00,,2013-08-19 06:11:00,
2013-08-18 23:21:00,80.0,55.0,29.87,West,276,0.0,2.0,43,0.00,,,0.00,,2013-08-19 06:21:00,
2013-08-18 23:41:00,80.0,56.0,29.87,West,276,0.0,1.0,44,0.00,,,0.00,,2013-08-19 06:41:00,